Terminal Aerodrome Forecast
Issued by NWS Mt. Holly, NJ

Home | Current Version | Previous Version | Text Only | Print | Product List | Glossary On
Versions: 1 2 3 4 5 6 7 8 9 10 11 12 13 14 15 16 17 18 19
000
FTUS41 KPHI 212300 RRA
TAFTTN
TAF
KTTN 212342Z 2200/2224 34005KT P6SM BKN028
      TEMPO 2200/2204 SCT028
     FM220400 36003KT P6SM FEW030 SCT250
     FM221400 03004KT P6SM BKN250
     FM221900 09005KT P6SM OVC100
     FM222100 10005KT P6SM BKN060
      TEMPO 2221/2223 5SM -RA
     FM222300 11004KT P6SM BKN030
      TEMPO 2223/2224 5SM -RA=

USA.gov is the U.S. government's official web portal to all federal, state and local government web resources and services.